Time;durP1;ratioP1;P1;durP2;ratioP2;P2;SDS_P1;SDS_P2;PMS_P1;PMS_P2;Temp;Humidity;BMP_temperature;BMP_pressure;BME280_temperature;BME280_humidity;BME280_pressure;Samples;Min_cycle;Max_cycle;Signal;HPM_P1;HPM_P2
2023/03/24 00:00:11;;;;;;;45.10;2.78;;;;;;;21.60;61.77;98540.38;7314979;19;129177;-40
2023/03/24 00:02:40;;;;;;;40.63;2.53;;;;;;;21.65;61.20;98545.94;7314260;19;130108;-42
2023/03/24 00:05:13;;;;;;;52.80;3.33;;;;;;;21.69;61.76;98549.88;7312654;19;129180;-42
2023/03/24 00:07:40;;;;;;;36.00;2.30;;;;;;;21.71;61.59;98539.25;7311603;19;129569;-41
2023/03/24 00:10:09;;;;;;;50.70;3.20;;;;;;;21.73;61.25;98542.50;7315078;19;129530;-42
2023/03/24 00:12:41;;;;;;;40.05;2.47;;;;;;;21.75;62.25;98541.34;7312449;19;128987;-42
2023/03/24 00:15:13;;;;;;;53.53;3.33;;;;;;;21.73;61.14;98538.09;7310040;19;129691;-41
2023/03/24 00:17:40;;;;;;;39.67;2.67;;;;;;;21.75;60.62;98533.50;7312356;19;130102;-41
2023/03/24 00:20:16;;;;;;;55.97;3.40;;;;;;;21.77;62.20;98534.19;7315225;19;129064;-41
2023/03/24 00:22:47;;;;;;;39.28;2.58;;;;;;;21.74;61.49;98516.19;7314517;19;129980;-41
2023/03/24 00:25:18;;;;;;;60.83;3.40;;;;;;;21.75;61.67;98509.97;7311359;19;130402;-42
2023/03/24 00:27:47;;;;;;;49.55;2.85;;;;;;;21.79;61.04;98507.84;7312079;19;129280;-42
2023/03/24 00:30:18;;;;;;;54.03;3.17;;;;;;;21.75;61.40;98509.97;7315173;19;128996;-41
2023/03/24 00:32:45;;;;;;;28.65;2.08;;;;;;;21.76;61.69;98498.56;7314342;19;129209;-42
2023/03/24 00:35:17;;;;;;;47.65;2.75;;;;;;;21.77;60.61;98500.19;7310490;19;130223;-42
2023/03/24 00:37:44;;;;;;;67.30;4.03;;;;;;;21.78;61.63;98503.63;7310564;19;129201;-40
2023/03/24 00:40:16;;;;;;;32.67;2.25;;;;;;;21.78;61.45;98496.56;7313241;19;129180;-41
2023/03/24 00:42:46;;;;;;;61.53;4.10;;;;;;;21.79;61.00;98493.00;7311750;19;130104;-42
2023/03/24 00:45:17;;;;;;;56.67;3.47;;;;;;;21.81;61.29;98495.44;7311451;19;129235;-41
2023/03/24 00:47:43;;;;;;;59.97;3.78;;;;;;;21.75;61.10;98489.03;7310920;19;128992;-41
2023/03/24 00:50:16;;;;;;;50.90;2.95;;;;;;;21.81;61.95;98493.66;7313665;19;129117;-42
2023/03/24 00:52:47;;;;;;;39.58;2.45;;;;;;;21.82;61.78;98484.81;7314280;19;130295;-41
2023/03/24 00:55:14;;;;;;;44.63;2.92;;;;;;;21.81;61.52;98485.78;7310835;19;130010;-42
2023/03/24 00:57:51;;;;;;;33.08;2.05;;;;;;;21.83;61.36;98483.81;7310609;19;129253;-42
2023/03/24 01:00:23;;;;;;;30.30;2.08;;;;;;;21.81;61.85;98475.34;7313391;19;128998;-41
2023/03/24 01:02:52;;;;;;;54.45;3.00;;;;;;;21.81;61.64;98480.56;7311672;19;130400;-40
2023/03/24 01:05:23;;;;;;;34.72;2.13;;;;;;;21.83;61.52;98468.09;7312344;19;129608;-42
2023/03/24 01:07:55;;;;;;;33.28;2.20;;;;;;;21.82;61.43;98476.94;7310028;19;130323;-42
2023/03/24 01:10:25;;;;;;;22.73;1.63;;;;;;;21.83;61.53;98475.94;7312638;19;129014;-42
2023/03/24 01:12:54;;;;;;;37.33;2.35;;;;;;;21.73;61.63;98446.53;7311032;19;129073;-41
2023/03/24 01:15:23;;;;;;;68.65;3.80;;;;;;;21.86;61.05;98456.50;7308228;19;129760;-41
2023/03/24 01:17:51;;;;;;;58.42;3.47;;;;;;;21.86;61.22;98459.94;7307980;19;130114;-43
2023/03/24 01:20:18;;;;;;;30.38;2.35;;;;;;;21.88;61.09;98460.56;7312696;19;129491;-42
2023/03/24 01:22:45;;;;;;;;;;;;;;;21.97;61.00;98458.75;7312284;19;131069;-42
2023/03/24 01:25:16;;;;;;;49.60;3.00;;;;;;;21.90;60.88;98453.38;7311780;19;129320;-41
2023/03/24 01:27:50;;;;;;;42.53;2.55;;;;;;;21.88;60.84;98444.06;7309235;19;128867;-40
2023/03/24 01:30:21;;;;;;;31.73;2.00;;;;;;;21.88;60.90;98450.09;7313054;19;129592;-42
2023/03/24 01:32:47;;;;;;;36.20;2.55;;;;;;;21.80;60.35;98436.22;7311316;19;129239;-42
2023/03/24 01:35:14;;;;;;;16.90;1.45;;;;;;;21.90;60.91;98448.13;7309730;19;131042;-43
2023/03/24 01:37:40;;;;;;;53.92;3.03;;;;;;;21.89;60.45;98446.53;7311648;19;129845;-41
2023/03/24 01:40:10;;;;;;;39.03;2.40;;;;;;;21.91;61.20;98439.28;7319129;19;128802;-42
2023/03/24 01:42:38;;;;;;;42.72;2.70;;;;;;;21.88;60.91;98429.16;7315273;19;129353;-41
2023/03/24 01:45:47;;;;;;;34.88;2.17;;;;;;;21.93;61.15;98431.31;7317848;19;129196;-41
2023/03/24 01:48:37;;;;;;;75.18;4.18;;;;;;;21.91;61.37;98433.25;7310014;19;129524;-42
2023/03/24 01:51:20;;;;;;;66.60;3.72;;;;;;;21.89;61.41;98430.81;7318850;19;130692;-41
2023/03/24 01:53:53;;;;;;;33.92;2.22;;;;;;;21.89;60.75;98425.59;7315900;19;130070;-41
2023/03/24 01:56:23;;;;;;;61.95;3.53;;;;;;;21.87;60.84;98427.53;7315879;19;129719;-40
2023/03/24 01:58:57;;;;;;;51.50;2.92;;;;;;;21.90;60.94;98429.81;7317455;19;129285;-41
2023/03/24 02:01:25;;;;;;;86.32;4.50;;;;;;;21.90;61.09;98427.19;7317785;19;129074;-41
2023/03/24 02:03:51;;;;;;;47.58;2.70;;;;;;;21.87;61.00;98432.78;7318750;19;129686;-43
2023/03/24 02:06:25;;;;;;;51.15;3.15;;;;;;;21.85;61.27;98421.66;7316619;19;129207;-41
2023/03/24 02:09:00;;;;;;;66.30;3.90;;;;;;;21.79;61.20;98414.50;7316400;19;129210;-40
2023/03/24 02:11:34;;;;;;;67.65;3.80;;;;;;;21.86;61.50;98425.94;7316093;19;129052;-42
2023/03/24 02:14:05;;;;;;;53.80;2.97;;;;;;;21.86;60.64;98420.69;7314505;19;129456;-43
2023/03/24 02:16:56;;;;;;;53.25;3.08;;;;;;;21.87;61.21;98430.16;7316091;19;129568;-40
2023/03/24 02:19:58;;;;;;;54.00;2.95;;;;;;;21.87;61.20;98437.19;7317513;19;128895;-41
2023/03/24 02:22:35;;;;;;;40.85;2.53;;;;;;;21.86;60.25;98425.09;7315000;19;130975;-41
2023/03/24 02:25:01;;;;;;;56.25;3.20;;;;;;;21.85;60.65;98426.91;7316911;19;129028;-43
2023/03/24 02:28:21;;;;;;;28.33;1.77;;;;;;;21.89;61.05;98420.34;7315205;19;129265;-42
2023/03/24 02:30:47;;;;;;;69.82;3.95;;;;;;;21.86;61.18;98425.09;7312405;19;129255;-41
2023/03/24 02:33:52;;;;;;;33.83;2.13;;;;;;;21.86;60.86;98415.47;7317562;19;129300;-42
2023/03/24 02:36:36;;;;;;;51.17;2.70;;;;;;;21.84;60.94;98412.19;7316473;19;131188;-41
2023/03/24 02:39:30;;;;;;;52.55;2.85;;;;;;;21.83;61.06;98413.16;7317216;19;129225;-40
2023/03/24 02:42:13;;;;;;;68.13;3.70;;;;;;;21.86;61.12;98412.84;7316808;19;129283;-42
2023/03/24 02:44:51;;;;;;;51.85;3.03;;;;;;;21.87;61.24;98398.75;7316848;19;128804;-41
2023/03/24 02:47:30;;;;;;;84.40;4.80;;;;;;;21.84;60.76;98396.50;7313266;19;128965;-41
2023/03/24 02:50:02;;;;;;;32.78;2.28;;;;;;;21.85;60.72;98398.13;7315899;19;129133;-41
2023/03/24 02:52:34;;;;;;;32.85;1.98;;;;;;;21.77;61.28;98390.31;7316382;19;128961;-41
2023/03/24 02:55:18;;;;;;;33.45;2.05;;;;;;;21.86;60.68;98398.94;7315022;19;129031;-42
2023/03/24 02:57:54;;;;;;;33.78;2.25;;;;;;;21.85;60.84;98386.81;7313641;19;129402;-41
2023/03/24 03:00:40;;;;;;;36.22;2.33;;;;;;;21.85;60.77;98387.66;7315871;19;130315;-41
2023/03/24 03:03:18;;;;;;;47.22;2.90;;;;;;;21.84;61.20;98385.19;7316010;19;128987;-42
2023/03/24 03:05:52;;;;;;;78.80;4.25;;;;;;;21.84;61.08;98380.78;7315108;19;129561;-40
2023/03/24 03:08:21;;;;;;;63.22;3.58;;;;;;;21.81;60.52;98381.16;7310959;19;129533;-42
2023/03/24 03:10:50;;;;;;;54.20;3.50;;;;;;;21.81;60.89;98378.53;7315892;19;129647;-41
2023/03/24 03:13:23;;;;;;;40.88;2.50;;;;;;;21.82;61.42;98377.53;7315808;19;128870;-41
2023/03/24 03:15:57;;;;;;;52.97;3.35;;;;;;;21.83;61.13;98388.81;7312673;19;128812;-41
2023/03/24 03:18:32;;;;;;;26.20;1.95;;;;;;;21.82;60.57;98381.94;7315384;19;129486;-42
2023/03/24 03:21:06;;;;;;;80.57;4.38;;;;;;;21.81;60.44;98386.38;7314303;19;129524;-41
2023/03/24 03:23:36;;;;;;;41.75;2.55;;;;;;;21.79;60.95;98375.25;7315819;19;128801;-41
2023/03/24 03:26:08;;;;;;;46.50;2.60;;;;;;;21.81;60.70;98386.38;7313908;19;129289;-41
2023/03/24 03:28:40;;;;;;;29.95;1.98;;;;;;;21.80;60.21;98382.09;7314834;19;129785;-41
2023/03/24 03:31:14;;;;;;;44.80;2.67;;;;;;;21.81;61.43;98386.38;7315225;19;129301;-42
2023/03/24 03:34:01;;;;;;;45.13;2.45;;;;;;;21.83;61.23;98386.19;7315682;19;129284;-41
2023/03/24 03:36:41;;;;;;;49.50;2.78;;;;;;;21.81;61.14;98381.16;7314091;19;128881;-42
2023/03/24 03:39:18;;;;;;;39.42;2.40;;;;;;;21.80;60.97;98374.25;7314920;19;129160;-42
2023/03/24 03:41:45;;;;;;;48.65;2.72;;;;;;;21.79;60.68;98362.19;7315175;19;131335;-41
2023/03/24 03:44:11;;;;;;;;;;;;;;;21.86;60.71;98370.97;7315915;19;130019;-42
2023/03/24 03:46:37;;;;;;;15.75;1.30;;;;;;;21.80;59.74;98357.75;7313417;19;129171;-42
2023/03/24 03:49:08;;;;;;;46.97;2.65;;;;;;;21.79;60.14;98351.72;7314167;19;129383;-42
2023/03/24 03:51:37;;;;;;;72.03;4.00;;;;;;;21.77;60.75;98351.06;7315349;19;129205;-40
2023/03/24 03:54:13;;;;;;;40.10;2.38;;;;;;;21.79;61.17;98341.25;7313749;19;130394;-41
2023/03/24 03:56:41;;;;;;;26.40;1.83;;;;;;;21.78;60.75;98339.59;7313736;19;129717;-41
2023/03/24 03:59:22;;;;;;;8.95;0.93;;;;;;;21.77;60.88;98348.44;7315423;19;129367;-42
2023/03/24 04:01:48;;;;;;;32.45;1.95;;;;;;;21.77;60.13;98351.06;7312909;19;129137;-41
2023/03/24 04:05:04;;;;;;;63.20;3.47;;;;;;;21.80;60.79;98340.25;7313517;19;129241;-42
2023/03/24 04:07:46;;;;;;;51.90;3.13;;;;;;;21.78;61.36;98334.38;7307287;19;130213;-41
2023/03/24 04:10:32;;;;;;;36.22;2.17;;;;;;;21.79;60.84;98343.88;7312079;19;131017;-41
2023/03/24 04:13:37;;;;;;;55.70;3.00;;;;;;;21.79;61.52;98335.19;7311165;19;129450;-42
2023/03/24 04:16:31;;;;;;;14.75;1.10;;;;;;;21.77;60.84;98345.84;7311483;19;129151;-42
2023/03/24 04:19:06;;;;;;;30.15;2.00;;;;;;;21.76;60.55;98349.44;7314134;19;130601;-42
2023/03/24 04:21:47;;;;;;;38.90;2.38;;;;;;;21.76;60.76;98349.44;7312596;19;129605;-43
2023/03/24 04:24:50;;;;;;;43.97;2.40;;;;;;;21.68;61.05;98328.50;7311229;19;129373;-42
2023/03/24 04:27:28;;;;;;;63.70;3.85;;;;;;;21.76;60.62;98338.97;7309544;19;129333;-41
2023/03/24 04:30:15;;;;;;;36.60;2.20;;;;;;;21.67;61.35;98323.44;7313554;19;129062;-41
2023/03/24 04:32:48;;;;;;;38.53;2.23;;;;;;;21.71;60.70;98328.19;7311002;19;129335;-42
2023/03/24 04:35:33;;;;;;;43.33;2.42;;;;;;;21.57;60.36;98336.72;7311314;19;129596;-41
2023/03/24 04:38:24;;;;;;;38.80;2.25;;;;;;;21.54;61.61;98331.84;7309868;19;129343;-40
2023/03/24 04:40:55;;;;;;;35.90;2.05;;;;;;;21.47;60.06;98320.41;7312746;19;129334;-42
2023/03/24 04:43:27;;;;;;;100.97;5.25;;;;;;;21.51;59.53;98321.72;7306193;19;131730;-41
2023/03/24 04:45:56;;;;;;;47.75;2.67;;;;;;;21.57;58.92;98302.72;7311992;19;129228;-41
2023/03/24 04:48:25;;;;;;;128.07;6.97;;;;;;;21.87;58.55;98316.84;7312604;19;130358;-41
2023/03/24 04:51:00;;;;;;;30.25;1.98;;;;;;;22.06;57.79;98310.34;7313453;19;129183;-41
2023/03/24 04:53:32;;;;;;;58.28;3.10;;;;;;;22.26;57.26;98306.28;7309263;19;129588;-41
2023/03/24 04:56:12;;;;;;;69.53;3.70;;;;;;;22.40;56.64;98297.66;7306699;19;131587;-41
2023/03/24 04:58:39;;;;;;;111.60;6.05;;;;;;;22.58;56.34;98295.56;7308192;19;129490;-40
2023/03/24 05:01:07;;;;;;;36.25;2.17;;;;;;;22.78;55.90;98288.81;7308343;19;130174;-41
2023/03/24 05:03:36;;;;;;;70.03;4.15;;;;;;;22.78;54.99;98270.47;7310084;19;129502;-40
2023/03/24 05:06:13;;;;;;;46.00;2.63;;;;;;;22.90;55.70;98279.53;7307996;19;129220;-41
2023/03/24 05:08:40;;;;;;;58.63;3.30;;;;;;;22.89;55.20;98283.16;7310559;19;130434;-41
2023/03/24 05:11:06;;;;;;;70.55;3.72;;;;;;;22.89;54.68;98268.22;7312186;19;129438;-42
2023/03/24 05:13:32;;;;;;;55.78;3.42;;;;;;;22.78;54.95;98265.25;7305657;19;131592;-41
2023/03/24 05:15:58;;;;;;;36.83;2.13;;;;;;;22.77;55.07;98274.09;7309372;19;131782;-41
2023/03/24 05:18:25;;;;;;;43.47;2.50;;;;;;;22.71;55.30;98274.84;7310979;19;129026;-43
2023/03/24 05:20:52;;;;;;;62.85;3.50;;;;;;;22.67;55.96;98268.31;7312411;19;128767;-41
2023/03/24 05:23:18;;;;;;;68.28;3.95;;;;;;;22.55;55.47;98260.06;7309493;19;131365;-40
2023/03/24 05:25:46;;;;;;;82.00;4.40;;;;;;;22.51;56.01;98266.59;7308440;19;129144;-41
2023/03/24 05:28:12;;;;;;;46.60;2.80;;;;;;;22.45;56.39;98272.56;7307964;19;129008;-41
2023/03/24 05:30:38;;;;;;;34.70;2.10;;;;;;;22.37;56.37;98269.19;7311486;19;129539;-43
2023/03/24 05:33:05;;;;;;;72.85;4.18;;;;;;;22.26;56.99;98261.78;7302063;19;130161;-41
2023/03/24 05:35:30;;;;;;;30.75;1.83;;;;;;;22.22;57.11;98266.53;7305093;19;129661;-40
2023/03/24 05:37:57;;;;;;;72.93;4.03;;;;;;;22.17;56.97;98257.56;7301737;19;130277;-41
2023/03/24 05:40:23;;;;;;;50.13;2.60;;;;;;;22.04;57.10;98244.25;7309879;19;128954;-40
2023/03/24 05:42:50;;;;;;;44.30;2.63;;;;;;;22.08;57.10;98256.03;7307362;19;130918;-40
2023/03/24 05:45:20;;;;;;;57.30;3.38;;;;;;;21.98;57.46;98254.44;7309390;19;130476;-42
2023/03/24 05:47:47;;;;;;;48.25;2.80;;;;;;;21.93;57.69;98248.91;7303651;19;130078;-42
2023/03/24 05:50:13;;;;;;;113.55;6.32;;;;;;;21.73;58.05;98229.41;7306564;19;130636;-40
2023/03/24 05:52:41;;;;;;;65.07;3.92;;;;;;;21.79;58.48;98241.00;7308454;19;129007;-40
2023/03/24 05:55:09;;;;;;;41.17;2.25;;;;;;;21.74;58.46;98241.50;7307094;19;129536;-42
2023/03/24 05:57:36;;;;;;;41.38;2.58;;;;;;;21.73;58.44;98239.06;7305007;19;129494;-41
2023/03/24 06:00:08;;;;;;;72.57;4.05;;;;;;;21.64;59.17;98222.59;7308490;19;129125;-41
2023/03/24 06:02:34;;;;;;;45.90;2.67;;;;;;;21.71;58.63;98222.72;7308968;19;129897;-41
2023/03/24 06:05:00;;;;;;;49.07;2.77;;;;;;;21.70;58.83;98227.13;7309280;19;129614;-42
2023/03/24 06:07:29;;;;;;;26.95;1.70;;;;;;;21.69;59.42;98228.13;7305599;19;130794;-42
2023/03/24 06:09:56;;;;;;;117.32;6.28;;;;;;;21.62;59.56;98216.72;7306922;19;130134;-42
2023/03/24 06:12:23;;;;;;;80.38;4.50;;;;;;;21.64;60.24;98227.84;7306654;19;130640;-41
2023/03/24 06:14:49;;;;;;;37.70;2.13;;;;;;;21.65;59.57;98213.75;7305329;19;129316;-41
2023/03/24 06:17:15;;;;;;;63.40;3.73;;;;;;;21.69;59.23;98224.69;7306634;19;129728;-40
2023/03/24 06:19:47;;;;;;;69.13;3.67;;;;;;;21.65;59.46;98219.00;7306143;19;129437;-41
2023/03/24 06:22:14;;;;;;;100.68;5.65;;;;;;;21.65;59.40;98224.22;7301831;19;129901;-39
2023/03/24 06:24:49;;;;;;;59.45;3.25;;;;;;;21.64;60.10;98217.38;7313119;19;129842;-41
2023/03/24 06:27:17;;;;;;;32.08;1.95;;;;;;;21.63;60.81;98221.00;7315716;19;129429;-41
2023/03/24 06:29:46;;;;;;;90.32;4.97;;;;;;;21.61;59.05;98220.34;7316732;19;128915;-41
2023/03/24 06:32:13;;;;;;;67.88;3.65;;;;;;;21.57;60.43;98213.81;7316115;19;129177;-41
2023/03/24 06:34:45;;;;;;;72.32;3.83;;;;;;;21.58;59.61;98212.84;7310785;19;131411;-42
2023/03/24 06:37:18;;;;;;;62.15;3.75;;;;;;;21.58;60.52;98210.22;7314730;19;129551;-41
2023/03/24 06:39:45;;;;;;;52.65;2.97;;;;;;;21.56;59.87;98206.97;7314922;19;131209;-42
2023/03/24 06:42:11;;;;;;;34.00;1.75;;;;;;;21.55;60.63;98207.94;7315130;19;130815;-41
2023/03/24 06:44:37;;;;;;;66.47;3.65;;;;;;;21.56;60.04;98203.53;7312003;19;131568;-41
2023/03/24 06:47:04;;;;;;;38.45;2.10;;;;;;;21.55;60.20;98205.31;7314740;19;129788;-42
2023/03/24 06:49:33;;;;;;;38.10;2.03;;;;;;;21.52;59.19;98203.06;7316300;19;129012;-41
2023/03/24 06:52:03;;;;;;;69.22;3.72;;;;;;;21.54;61.45;98211.56;7311441;19;129143;-42
2023/03/24 06:54:30;;;;;;;67.55;3.85;;;;;;;21.51;60.16;98217.13;7313810;19;130101;-40
2023/03/24 06:56:56;;;;;;;40.67;2.40;;;;;;;21.50;60.24;98212.88;7310911;19;130465;-42
2023/03/24 06:59:23;;;;;;;56.35;3.20;;;;;;;21.45;59.06;98206.53;7314868;19;129063;-41
2023/03/24 07:01:54;;;;;;;;;;;;;;;21.48;62.09;98212.25;7318281;19;129056;-41
2023/03/24 07:04:24;;;;;;;83.53;4.45;;;;;;;21.44;59.63;98213.56;7312492;19;130080;-41
2023/03/24 07:06:51;;;;;;;42.10;2.42;;;;;;;21.42;60.49;98215.53;7312522;19;129363;-41
2023/03/24 07:09:18;;;;;;;68.95;3.83;;;;;;;21.41;59.50;98216.53;7313090;19;128952;-40
2023/03/24 07:11:44;;;;;;;;;;;;;;;21.42;62.05;98197.22;7314565;19;129625;-42
2023/03/24 07:14:10;;;;;;;28.60;1.58;;;;;;;21.42;60.42;98207.69;7314014;19;129087;-41
2023/03/24 07:16:36;;;;;;;42.08;2.40;;;;;;;21.38;60.50;98211.66;7312433;19;129780;-42
2023/03/24 07:19:05;;;;;;;26.03;1.87;;;;;;;21.40;60.57;98204.44;7316178;19;128762;-41
2023/03/24 07:21:31;;;;;;;49.95;2.78;;;;;;;21.46;60.66;98211.59;7314567;19;129510;-41
2023/03/24 07:24:01;;;;;;;53.75;2.83;;;;;;;21.39;62.17;98191.53;7313457;19;130027;-41
2023/03/24 07:26:27;;;;;;;42.53;2.30;;;;;;;21.51;61.44;98211.06;7314177;19;128897;-42
2023/03/24 07:28:54;;;;;;;34.13;1.85;;;;;;;21.55;60.86;98200.09;7316111;19;128793;-43
2023/03/24 07:31:21;;;;;;;31.23;1.85;;;;;;;21.54;60.09;98206.31;7315329;19;129603;-41
2023/03/24 07:33:47;;;;;;;45.17;2.42;;;;;;;21.56;61.32;98206.16;7313232;19;129748;-41
2023/03/24 07:36:14;;;;;;;39.57;2.23;;;;;;;21.59;61.89;98204.00;7310438;19;130432;-41
2023/03/24 07:38:40;;;;;;;41.20;2.30;;;;;;;21.52;61.05;98203.06;7315622;19;129278;-41
2023/03/24 07:41:06;;;;;;;28.63;1.63;;;;;;;21.50;60.30;98205.03;7315609;19;129598;-42
2023/03/24 07:43:35;;;;;;;47.15;2.60;;;;;;;21.46;60.03;98198.53;7314720;19;129577;-41
2023/03/24 07:46:02;;;;;;;43.58;2.55;;;;;;;21.52;59.93;98199.63;7312175;19;129851;-41
2023/03/24 07:48:28;;;;;;;28.65;1.60;;;;;;;21.68;59.44;98189.88;7316379;19;129150;-42
2023/03/24 07:50:55;;;;;;;33.00;1.75;;;;;;;21.83;59.06;98190.78;7315438;19;129092;-42
2023/03/24 07:53:21;;;;;;;52.70;3.00;;;;;;;22.04;57.82;98197.16;7315463;19;129405;-41
2023/03/24 07:55:48;;;;;;;92.10;4.97;;;;;;;22.23;57.73;98199.31;7313498;19;128920;-42
2023/03/24 07:58:14;;;;;;;30.70;1.73;;;;;;;22.37;56.63;98198.50;7312513;19;130039;-42
2023/03/24 08:00:41;;;;;;;13.57;1.05;;;;;;;22.45;56.74;98177.47;7315250;19;129431;-42
2023/03/24 08:03:12;;;;;;;44.13;2.50;;;;;;;22.74;55.79;98195.88;7314948;19;129195;-42
2023/03/24 08:05:40;;;;;;;44.35;2.35;;;;;;;22.90;55.41;98203.53;7314159;19;129395;-42
2023/03/24 08:08:06;;;;;;;36.53;2.08;;;;;;;23.08;55.01;98198.72;7310945;19;129325;-42
2023/03/24 08:10:33;;;;;;;24.65;1.48;;;;;;;23.20;54.79;98192.81;7314766;19;129416;-43
2023/03/24 08:13:00;;;;;;;39.95;2.17;;;;;;;23.36;54.23;98191.84;7313959;19;129673;-42
2023/03/24 08:15:27;;;;;;;44.25;2.30;;;;;;;23.50;53.72;98200.66;7313576;19;129884;-40
2023/03/24 08:17:53;;;;;;;;;;;;;;;23.57;53.31;98199.72;7312889;19;129073;-42
2023/03/24 08:20:20;;;;;;;36.58;2.03;;;;;;;23.63;53.78;98195.56;7314230;19;129769;-41
2023/03/24 08:22:48;;;;;;;;;;;;;;;23.49;53.49;98181.47;7315649;19;129251;-41
2023/03/24 08:25:15;;;;;;;;;;;;;;;23.48;54.11;98200.84;7314323;19;128999;-42
2023/03/24 08:27:45;;;;;;;75.25;4.22;;;;;;;23.39;54.08;98195.91;7304082;19;131069;-42
2023/03/24 08:30:19;;;;;;;32.85;1.85;;;;;;;23.27;54.03;98177.19;7312633;19;129190;-42
2023/03/24 08:32:53;;;;;;;59.10;3.33;;;;;;;23.12;55.06;98187.69;7313092;19;130066;-41
2023/03/24 08:35:23;;;;;;;49.40;2.65;;;;;;;23.00;54.98;98186.56;7313408;19;129174;-41
2023/03/24 08:37:49;;;;;;;59.30;3.10;;;;;;;22.90;55.09;98185.19;7310207;19;129267;-42
2023/03/24 08:40:22;;;;;;;23.20;1.55;;;;;;;22.75;55.43;98182.59;7312917;19;130125;-41
2023/03/24 08:42:55;;;;;;;37.38;2.25;;;;;;;22.62;55.77;98186.81;7312747;19;129158;-42
2023/03/24 08:45:23;;;;;;;37.95;2.25;;;;;;;22.53;56.67;98199.19;7312117;19;129638;-41
2023/03/24 08:47:50;;;;;;;36.22;1.95;;;;;;;22.43;56.75;98205.66;7310217;19;128791;-42
2023/03/24 08:50:22;;;;;;;36.17;1.90;;;;;;;22.32;56.64;98196.41;7313148;19;129014;-40
2023/03/24 08:52:49;;;;;;;31.02;1.73;;;;;;;22.26;57.26;98180.63;7312298;19;129829;-42
2023/03/24 08:55:17;;;;;;;25.92;1.50;;;;;;;22.14;57.27;98171.56;7313212;19;129728;-42
2023/03/24 08:57:44;;;;;;;24.85;1.50;;;;;;;22.07;57.77;98181.91;7311377;19;129242;-41
2023/03/24 09:00:14;;;;;;;46.58;2.50;;;;;;;22.01;58.05;98179.19;7314527;19;128956;-43
2023/03/24 09:02:45;;;;;;;32.20;1.90;;;;;;;21.94;58.66;98182.53;7312949;19;129263;-42
2023/03/24 09:05:12;;;;;;;30.25;1.70;;;;;;;21.90;58.85;98186.47;7312015;19;128786;-41
2023/03/24 09:07:38;;;;;;;35.72;2.03;;;;;;;21.76;58.62;98168.94;7311032;19;129183;-41
2023/03/24 09:10:06;;;;;;;48.47;2.40;;;;;;;21.81;58.63;98184.09;7313569;19;129463;-41
2023/03/24 09:12:33;;;;;;;40.55;2.22;;;;;;;21.77;58.76;98186.25;7312232;19;129858;-42
2023/03/24 09:15:03;;;;;;;;;;;;;;;21.68;60.22;98170.75;7313664;19;129747;-42
2023/03/24 09:17:30;;;;;;;31.67;1.75;;;;;;;21.79;59.63;98186.06;7310922;19;128879;-41
2023/03/24 09:19:57;;;;;;;51.55;2.55;;;;;;;21.69;59.18;98178.44;7312270;19;129067;-42
2023/03/24 09:22:25;;;;;;;32.10;1.63;;;;;;;21.68;60.27;98179.41;7312976;19;129577;-42
2023/03/24 09:24:52;;;;;;;34.65;1.98;;;;;;;21.68;59.50;98182.03;7312406;19;129300;-40
2023/03/24 09:27:22;;;;;;;7.50;0.70;;;;;;;21.74;60.48;98194.41;7309268;19;128821;-42
2023/03/24 09:29:48;;;;;;;43.15;2.13;;;;;;;21.75;60.79;98192.63;7312427;19;128962;-41
2023/03/24 09:32:14;;;;;;;46.28;2.47;;;;;;;21.74;60.48;98207.50;7312892;19;129817;-41
2023/03/24 09:34:41;;;;;;;32.20;1.77;;;;;;;21.75;61.06;98201.28;7312927;19;129013;-42
2023/03/24 09:37:07;;;;;;;28.00;1.50;;;;;;;21.76;60.41;98202.94;7308113;19;130099;-41
2023/03/24 09:39:37;;;;;;;50.33;2.78;;;;;;;21.73;60.03;98199.81;7310660;19;131950;-41
2023/03/24 09:42:15;;;;;;;47.38;2.47;;;;;;;21.79;59.03;98205.22;7312858;19;129691;-40
2023/03/24 09:45:02;;;;;;;37.80;2.03;;;;;;;21.94;58.78;98208.69;7312359;19;129391;-41
2023/03/24 09:47:40;;;;;;;32.37;1.77;;;;;;;22.14;58.51;98205.59;7311275;19;129472;-41
2023/03/24 09:50:39;;;;;;;34.55;1.83;;;;;;;22.28;57.57;98203.00;7311117;19;131124;-40
2023/03/24 09:53:22;;;;;;;13.00;0.95;;;;;;;22.35;57.72;98214.38;7310573;19;129322;-42
2023/03/24 09:55:48;;;;;;;31.95;1.67;;;;;;;22.34;57.53;98204.09;7310909;19;129766;-43
2023/03/24 09:58:15;;;;;;;35.03;2.20;;;;;;;22.35;57.56;98200.47;7307342;19;129831;-41
2023/03/24 10:00:43;;;;;;;32.33;1.85;;;;;;;22.28;57.09;98204.81;7318516;19;129416;-42
2023/03/24 10:03:20;;;;;;;32.28;1.83;;;;;;;22.23;57.69;98207.16;7318273;19;129737;-41
2023/03/24 10:06:09;;;;;;;47.78;2.45;;;;;;;22.15;57.76;98207.22;7318856;19;128965;-41
2023/03/24 10:08:40;;;;;;;78.70;4.22;;;;;;;22.08;58.28;98208.91;7317328;19;128898;-41
2023/03/24 10:11:34;;;;;;;35.00;1.80;;;;;;;22.00;58.51;98206.38;7318154;19;128947;-42
2023/03/24 10:14:10;;;;;;;55.40;3.00;;;;;;;21.92;58.26;98194.16;7318986;19;129796;-42
2023/03/24 10:16:49;;;;;;;33.05;1.83;;;;;;;21.79;58.70;98184.28;7316443;19;129236;-41
2023/03/24 10:19:56;;;;;;;44.92;2.75;;;;;;;21.81;58.56;98208.47;7319030;19;129148;-43
2023/03/24 10:22:44;;;;;;;64.20;3.50;;;;;;;21.77;59.21;98211.59;7316830;19;129164;-41
2023/03/24 10:25:40;;;;;;;32.80;1.73;;;;;;;21.71;59.09;98207.84;7318438;19;129267;-42
2023/03/24 10:28:18;;;;;;;45.05;2.42;;;;;;;21.70;59.25;98200.97;7316486;19;128938;-41
2023/03/24 10:30:47;;;;;;;37.50;1.90;;;;;;;21.67;59.62;98200.50;7318225;19;129425;-42
2023/03/24 10:33:13;;;;;;;31.92;1.73;;;;;;;21.57;60.34;98184.22;7318650;19;129046;-42
2023/03/24 10:36:09;;;;;;;41.08;2.30;;;;;;;21.68;60.92;98197.72;7316204;19;129177;-42
2023/03/24 10:38:36;;;;;;;27.73;1.55;;;;;;;21.70;60.42;98200.97;7315970;19;129337;-42
2023/03/24 10:41:03;;;;;;;37.53;2.00;;;;;;;21.73;60.66;98207.69;7318082;19;129141;-42
2023/03/24 10:43:32;;;;;;;50.70;2.53;;;;;;;21.71;59.92;98205.25;7317178;19;129480;-41
2023/03/24 10:46:01;;;;;;;30.73;1.73;;;;;;;21.71;59.56;98202.63;7316902;19;129133;-41
2023/03/24 10:48:43;;;;;;;31.02;1.60;;;;;;;21.70;60.07;98200.97;7317259;19;128766;-42
2023/03/24 10:51:17;;;;;;;33.85;1.75;;;;;;;21.70;62.11;98206.22;7316219;19;128672;-41
2023/03/24 10:53:47;;;;;;;32.05;1.75;;;;;;;21.71;59.86;98209.66;7316104;19;129117;-40
2023/03/24 10:56:44;;;;;;;35.08;1.80;;;;;;;21.59;62.15;98188.31;7314602;19;129081;-42
2023/03/24 10:59:27;;;;;;;40.17;2.15;;;;;;;21.64;60.30;98201.69;7315532;19;129488;-40
2023/03/24 11:02:08;;;;;;;52.67;2.67;;;;;;;21.65;60.84;98202.50;7317595;19;129569;-41
2023/03/24 11:04:40;;;;;;;93.60;4.85;;;;;;;21.60;61.06;98202.22;7316286;19;129135;-42
2023/03/24 11:07:19;;;;;;;46.83;2.63;;;;;;;21.59;60.68;98211.84;7315572;19;129243;-41
2023/03/24 11:09:56;;;;;;;30.23;1.80;;;;;;;21.62;61.24;98206.25;7316878;19;129481;-42
2023/03/24 11:12:29;;;;;;;31.20;1.65;;;;;;;21.67;60.93;98217.03;7316521;19;129177;-41
2023/03/24 11:15:16;;;;;;;34.88;1.92;;;;;;;21.68;59.75;98215.22;7314918;19;129993;-42
2023/03/24 11:17:43;;;;;;;26.90;1.43;;;;;;;21.84;59.62;98223.00;7314161;19;129657;-41
2023/03/24 11:20:24;;;;;;;37.47;2.03;;;;;;;22.02;58.32;98231.34;7316691;19;129047;-40
2023/03/24 11:23:01;;;;;;;45.72;2.25;;;;;;;22.12;58.19;98218.84;7314103;19;129545;-42
2023/03/24 11:25:34;;;;;;;43.83;2.28;;;;;;;22.25;57.54;98228.72;7316156;19;129181;-41
2023/03/24 11:28:07;;;;;;;59.00;3.30;;;;;;;22.21;57.47;98235.31;7312560;19;131289;-42
2023/03/24 11:30:44;;;;;;;28.35;1.58;;;;;;;22.19;57.93;98240.72;7317288;19;129315;-41
2023/03/24 11:33:33;;;;;;;31.67;1.80;;;;;;;22.15;58.04;98230.78;7314680;19;129570;-42
2023/03/24 11:36:29;;;;;;;18.65;1.20;;;;;;;22.10;58.08;98227.88;7312507;19;129173;-41
2023/03/24 11:39:03;;;;;;;59.22;3.25;;;;;;;22.04;58.36;98228.56;7312535;19;130120;-41
2023/03/24 11:41:29;;;;;;;31.27;1.73;;;;;;;21.98;57.96;98218.81;7315262;19;129020;-41
2023/03/24 11:44:27;;;;;;;27.42;1.50;;;;;;;21.91;58.22;98219.50;7314483;19;129580;-43